Time;durP1;ratioP1;P1;durP2;ratioP2;P2;SDS_P1;SDS_P2;PMS_P1;PMS_P2;Temp;Humidity;BMP_temperature;BMP_pressure;BME280_temperature;BME280_humidity;BME280_pressure;Samples;Min_cycle;Max_cycle;Signal;HPM_P1;HPM_P2
2022/09/16 00:00:03;;;;;;;4.55;1.63;;;13.50;99.90;;;;;;2089531;28;20033;-76
2022/09/16 00:01:13;;;;;;;4.47;1.40;;;13.50;99.90;;;;;;2106544;28;20548;-77
2022/09/16 00:02:14;;;;;;;2.17;1.45;;;13.50;99.90;;;;;;2106372;28;20119;-76
2022/09/16 00:03:16;;;;;;;1.92;1.33;;;13.50;99.90;;;;;;2106376;28;20105;-77
2022/09/16 00:04:17;;;;;;;3.33;1.50;;;13.50;99.90;;;;;;2106469;28;20026;-77
2022/09/16 00:05:18;;;;;;;3.17;1.60;;;13.50;99.90;;;;;;2097925;28;20024;-76
2022/09/16 00:06:24;;;;;;;2.97;1.50;;;13.50;99.90;;;;;;2097929;28;20250;-76
2022/09/16 00:07:24;;;;;;;2.30;1.55;;;13.40;99.90;;;;;;2106959;28;20028;-75
2022/09/16 00:08:25;;;;;;;1.65;1.30;;;13.50;99.90;;;;;;2108570;28;20409;-77
2022/09/16 00:09:25;;;;;;;3.92;1.40;;;13.40;99.90;;;;;;2109059;28;20637;-77
2022/09/16 00:10:26;;;;;;;2.83;1.50;;;13.40;99.90;;;;;;2108482;28;20039;-76
2022/09/16 00:11:28;;;;;;;2.92;1.50;;;13.40;99.90;;;;;;2107915;28;20028;-77
2022/09/16 00:12:28;;;;;;;3.25;1.63;;;13.40;99.90;;;;;;2108379;28;20197;-77
2022/09/16 00:13:29;;;;;;;4.38;1.40;;;13.40;99.90;;;;;;2107574;28;20039;-77
2022/09/16 00:14:30;;;;;;;2.50;1.80;;;13.40;99.90;;;;;;2106715;28;20031;-77
2022/09/16 00:15:31;;;;;;;2.75;1.50;;;13.30;99.90;;;;;;2106125;28;20540;-78
2022/09/16 00:16:32;;;;;;;2.35;1.58;;;13.40;99.90;;;;;;2106979;28;20024;-77
2022/09/16 00:17:33;;;;;;;2.85;1.50;;;13.40;99.90;;;;;;2106994;28;20124;-76
2022/09/16 00:18:34;;;;;;;1.65;1.35;;;13.40;99.90;;;;;;2106192;28;20093;-76
2022/09/16 00:19:34;;;;;;;4.05;1.30;;;13.40;99.90;;;;;;2106389;28;20085;-76
2022/09/16 00:20:35;;;;;;;2.15;1.50;;;13.40;99.90;;;;;;2107340;28;20030;-78
2022/09/16 00:21:36;;;;;;;2.22;1.50;;;13.30;99.90;;;;;;2097812;28;20040;-78
2022/09/16 00:22:37;;;;;;;2.45;1.58;;;13.40;99.90;;;;;;2097720;28;20013;-77
2022/09/16 00:23:38;;;;;;;2.60;1.38;;;13.30;99.90;;;;;;2107059;28;20101;-77
2022/09/16 00:24:38;;;;;;;2.03;1.50;;;13.40;99.90;;;;;;2106640;28;20028;-77
2022/09/16 00:25:39;;;;;;;1.75;1.30;;;13.30;99.90;;;;;;2106383;28;20111;-77
2022/09/16 00:26:41;;;;;;;2.10;1.35;;;13.40;99.90;;;;;;2106522;28;20027;-77
2022/09/16 00:27:41;;;;;;;2.13;1.48;;;13.30;99.90;;;;;;2106700;28;20028;-77
2022/09/16 00:28:42;;;;;;;1.65;1.30;;;13.30;99.90;;;;;;2097536;28;20028;-76
2022/09/16 00:29:43;;;;;;;1.40;1.30;;;13.40;99.90;;;;;;2106572;28;20134;-77
2022/09/16 00:30:43;;;;;;;1.55;1.15;;;13.40;99.90;;;;;;2106612;28;20066;-78
2022/09/16 00:31:44;;;;;;;3.47;1.50;;;13.40;99.90;;;;;;2106252;28;20042;-77
2022/09/16 00:32:45;;;;;;;1.42;1.33;;;13.50;99.90;;;;;;2106328;28;20025;-77
2022/09/16 00:33:46;;;;;;;1.88;1.42;;;13.50;99.90;;;;;;2098039;28;20059;-76
2022/09/16 00:34:46;;;;;;;2.47;1.70;;;13.50;99.90;;;;;;2097986;28;20029;-76
2022/09/16 00:35:47;;;;;;;1.90;1.50;;;13.50;99.90;;;;;;2106650;28;20109;-77
2022/09/16 00:36:47;;;;;;;2.42;1.50;;;13.50;99.90;;;;;;2107183;28;20024;-78
2022/09/16 00:37:49;;;;;;;2.42;1.33;;;13.50;99.90;;;;;;2106934;28;20058;-77
2022/09/16 00:38:51;;;;;;;1.58;1.33;;;13.60;99.90;;;;;;2106162;28;20028;-78
2022/09/16 00:39:52;;;;;;;2.55;1.40;;;13.60;99.90;;;;;;2106654;28;20054;-77
2022/09/16 00:40:53;;;;;;;3.67;1.73;;;13.60;99.90;;;;;;2106750;28;20095;-77
2022/09/16 00:41:53;;;;;;;1.38;1.27;;;13.60;99.90;;;;;;2105772;28;20122;-77
2022/09/16 00:42:54;;;;;;;2.38;1.40;;;13.60;99.90;;;;;;2105899;28;20036;-77
2022/09/16 00:44:00;;;;;;;3.25;1.50;;;13.60;99.90;;;;;;2105795;28;20032;-77
2022/09/16 00:45:05;;;;;;;1.70;1.30;;;13.70;99.90;;;;;;2105561;28;20032;-77
2022/09/16 00:46:06;;;;;;;3.22;1.40;;;13.70;99.90;;;;;;2105948;28;20036;-77
2022/09/16 00:47:06;;;;;;;1.88;1.25;;;13.70;99.90;;;;;;2106194;28;20024;-77
2022/09/16 00:48:13;;;;;;;2.83;1.33;;;13.70;99.90;;;;;;2105323;28;20024;-77
2022/09/16 00:49:18;;;;;;;1.98;1.38;;;13.70;99.90;;;;;;2106257;28;20024;-77
2022/09/16 00:50:35;;;;;;;1.80;1.50;;;13.70;99.90;;;;;;2106271;28;20501;-77
2022/09/16 00:51:36;;;;;;;3.13;1.70;;;13.70;99.90;;;;;;2106313;28;20024;-77
2022/09/16 00:52:39;;;;;;;3.35;1.83;;;13.70;99.90;;;;;;2106385;28;20032;-78
2022/09/16 00:53:48;;;;;;;2.47;1.58;;;13.70;99.90;;;;;;2106576;28;20028;-77
2022/09/16 00:54:48;;;;;;;2.00;1.60;;;13.70;99.90;;;;;;2106186;28;20529;-76
2022/09/16 00:55:51;;;;;;;2.47;1.50;;;13.70;99.90;;;;;;2106288;28;20036;-77
2022/09/16 00:56:56;;;;;;;3.13;1.60;;;13.70;99.90;;;;;;2106145;28;20028;-77
2022/09/16 00:58:04;;;;;;;2.25;1.60;;;13.70;99.90;;;;;;2106953;28;20040;-78
2022/09/16 00:59:10;;;;;;;1.58;1.20;;;13.70;99.90;;;;;;2108879;28;20075;-77
2022/09/16 01:00:12;;;;;;;3.33;1.60;;;13.70;99.90;;;;;;2108594;28;20058;-78
2022/09/16 01:01:13;;;;;;;2.28;1.40;;;13.70;99.90;;;;;;2107587;28;20153;-76
2022/09/16 01:02:17;;;;;;;2.08;1.30;;;13.70;99.90;;;;;;2105921;28;20497;-76
2022/09/16 01:03:18;;;;;;;2.33;1.50;;;13.80;99.90;;;;;;2105780;28;20547;-77
2022/09/16 01:04:24;;;;;;;1.50;1.40;;;13.80;99.90;;;;;;2106091;28;20036;-77
2022/09/16 01:05:25;;;;;;;2.03;1.35;;;13.70;99.90;;;;;;2106050;28;20032;-77
2022/09/16 01:06:27;;;;;;;1.85;1.38;;;13.80;99.90;;;;;;2106275;28;20884;-77
2022/09/16 01:07:49;;;;;;;2.17;1.55;;;13.70;99.90;;;;;;2106306;28;20050;-77
2022/09/16 01:08:50;;;;;;;3.25;1.70;;;13.70;99.90;;;;;;2105697;28;20023;-77
2022/09/16 01:09:51;;;;;;;1.75;1.50;;;13.70;99.90;;;;;;2097289;28;20569;-77
2022/09/16 01:10:52;;;;;;;3.08;1.80;;;13.70;99.90;;;;;;2088746;28;20112;-77
2022/09/16 01:11:53;;;;;;;1.73;1.60;;;13.60;99.90;;;;;;2105382;28;20032;-77
2022/09/16 01:12:57;;;;;;;3.30;1.70;;;13.50;99.90;;;;;;2104391;28;20028;-77
2022/09/16 01:14:52;;;;;;;2.63;1.80;;;13.50;99.90;;;;;;2102843;28;20028;-77
2022/09/16 01:15:39;;;;;;;1.92;1.75;;;13.50;99.90;;;;;;2105860;28;20730;-77
2022/09/16 01:16:45;;;;;;;3.20;1.70;;;13.40;99.90;;;;;;2105582;28;20032;-76
2022/09/16 01:18:00;;;;;;;2.30;1.70;;;13.40;99.90;;;;;;2098000;28;20024;-77
2022/09/16 01:19:19;;;;;;;2.03;1.65;;;13.40;99.90;;;;;;2105959;28;20808;-76
2022/09/16 01:20:38;;;;;;;3.55;1.92;;;13.30;99.90;;;;;;2106280;28;20442;-76
2022/09/16 01:21:58;;;;;;;2.45;1.73;;;13.30;99.90;;;;;;2097332;28;20080;-76
2022/09/16 01:23:26;;;;;;;3.38;1.80;;;13.30;99.90;;;;;;2100020;28;20024;-77
2022/09/16 01:24:32;;;;;;;3.80;2.08;;;13.30;99.90;;;;;;2100953;28;20067;-77
2022/09/16 01:25:44;;;;;;;5.47;2.22;;;13.30;99.90;;;;;;2104956;28;20601;-77
2022/09/16 01:27:04;;;;;;;3.78;2.20;;;13.30;99.90;;;;;;2105808;28;20020;-77
2022/09/16 01:28:10;;;;;;;3.28;1.90;;;13.30;99.90;;;;;;2106078;28;20103;-77
2022/09/16 01:29:35;;;;;;;3.80;2.00;;;13.30;99.90;;;;;;2106177;28;20045;-76
2022/09/16 01:30:42;;;;;;;2.75;1.90;;;13.30;99.90;;;;;;2105994;28;20032;-76
2022/09/16 01:31:48;;;;;;;3.28;1.90;;;13.30;99.90;;;;;;2104776;28;20039;-77
2022/09/16 01:33:10;;;;;;;4.28;1.88;;;13.30;99.90;;;;;;2097757;28;20025;-76
2022/09/16 01:34:49;;;;;;;2.97;2.00;;;13.30;99.90;;;;;;2104967;28;20047;-77
2022/09/16 01:36:24;;;;;;;2.78;1.83;;;13.30;99.90;;;;;;2106366;28;20035;-77
2022/09/16 01:37:49;;;;;;;5.13;2.00;;;13.30;99.90;;;;;;2105474;28;20035;-76
2022/09/16 01:39:01;;;;;;;3.80;1.98;;;13.30;99.90;;;;;;2100132;28;20593;-77
2022/09/16 01:40:15;;;;;;;4.95;1.90;;;13.30;99.90;;;;;;2105577;28;20482;-78
2022/09/16 01:41:26;;;;;;;4.25;2.00;;;13.20;99.90;;;;;;2106075;28;20509;-77
2022/09/16 01:42:33;;;;;;;3.25;1.63;;;13.20;99.90;;;;;;2097833;28;20029;-77
2022/09/16 01:43:55;;;;;;;4.97;1.80;;;13.20;99.90;;;;;;2097652;28;20021;-77
2022/09/16 01:45:20;;;;;;;5.00;1.85;;;13.20;99.90;;;;;;2102010;28;20082;-76
2022/09/16 01:46:38;;;;;;;3.45;2.10;;;13.20;99.90;;;;;;2105866;28;20028;-77
2022/09/16 01:48:03;;;;;;;4.70;1.95;;;13.20;99.90;;;;;;2105804;28;20050;-78
2022/09/16 01:49:14;;;;;;;3.65;1.83;;;13.20;99.90;;;;;;2106085;28;20099;-77
2022/09/16 01:50:34;;;;;;;4.75;1.92;;;13.20;99.90;;;;;;2105117;28;20043;-77
2022/09/16 01:52:17;;;;;;;2.95;1.98;;;13.20;99.90;;;;;;2105472;28;20893;-77
2022/09/16 01:53:36;;;;;;;2.55;1.67;;;13.20;99.90;;;;;;2088062;28;20048;-77
2022/09/16 01:54:58;;;;;;;3.83;1.77;;;13.20;99.90;;;;;;2105436;28;20024;-77
2022/09/16 01:56:22;;;;;;;6.38;2.00;;;13.20;99.90;;;;;;2105888;28;20031;-77
2022/09/16 01:57:34;;;;;;;3.70;1.73;;;13.30;99.90;;;;;;2105264;28;20039;-76
2022/09/16 01:59:08;;;;;;;2.97;1.70;;;13.30;99.90;;;;;;2105483;28;20024;-77
2022/09/16 02:00:13;;;;;;;4.28;1.83;;;13.30;99.90;;;;;;2090580;28;20045;-78
2022/09/16 02:01:28;;;;;;;3.50;1.70;;;13.30;99.90;;;;;;2089945;28;20079;-76
2022/09/16 02:02:50;;;;;;;4.40;1.90;;;13.30;99.90;;;;;;2105828;28;20028;-77
2022/09/16 02:03:57;;;;;;;4.63;1.67;;;13.40;99.90;;;;;;2105520;28;20071;-77
2022/09/16 02:05:03;;;;;;;4.45;1.75;;;13.40;99.90;;;;;;2105475;28;20024;-77
2022/09/16 02:06:10;;;;;;;2.05;1.45;;;13.40;99.90;;;;;;2106153;28;20020;-77
2022/09/16 02:07:14;;;;;;;2.63;1.48;;;13.40;99.90;;;;;;2105955;28;20039;-76
2022/09/16 02:08:28;;;;;;;2.72;1.40;;;13.50;99.90;;;;;;2105967;28;20089;-77
2022/09/16 02:09:35;;;;;;;3.72;1.80;;;13.50;99.90;;;;;;2106271;28;20123;-76
2022/09/16 02:10:45;;;;;;;3.17;1.65;;;13.50;99.90;;;;;;2105920;28;20411;-77
2022/09/16 02:11:50;;;;;;;2.50;1.48;;;13.50;99.90;;;;;;2105017;28;20032;-77
2022/09/16 02:12:53;;;;;;;4.00;1.60;;;13.50;99.90;;;;;;2105345;28;20032;-76
2022/09/16 02:14:17;;;;;;;2.25;1.50;;;13.50;99.90;;;;;;2105821;28;20027;-77
2022/09/16 02:15:21;;;;;;;3.03;1.35;;;13.50;99.90;;;;;;2105848;28;20028;-77
2022/09/16 02:16:40;;;;;;;2.78;1.50;;;13.60;99.90;;;;;;2105721;28;20026;-77
2022/09/16 02:17:46;;;;;;;3.58;1.52;;;13.60;99.90;;;;;;2106057;28;20020;-77
2022/09/16 02:18:53;;;;;;;2.40;1.50;;;13.60;99.90;;;;;;2106148;28;20089;-77
2022/09/16 02:20:06;;;;;;;2.60;1.52;;;13.60;99.90;;;;;;2106309;28;20042;-78
2022/09/16 02:21:13;;;;;;;3.20;1.40;;;13.60;99.90;;;;;;2105484;28;20169;-77
2022/09/16 02:22:24;;;;;;;3.65;1.40;;;13.50;99.90;;;;;;2096924;28;20060;-78
2022/09/16 02:23:27;;;;;;;;;;;13.60;99.90;;;;;;2104507;28;20038;-78
2022/09/16 02:24:30;;;;;;;3.20;1.42;;;13.60;99.90;;;;;;2097548;28;19912;-77
2022/09/16 02:25:34;;;;;;;4.68;1.40;;;13.60;99.90;;;;;;2098482;28;20657;-77
2022/09/16 02:26:43;;;;;;;2.97;1.50;;;13.60;99.90;;;;;;2097509;28;20040;-77
2022/09/16 02:27:48;;;;;;;3.05;1.60;;;13.60;99.90;;;;;;2097213;28;20028;-77
2022/09/16 02:28:51;;;;;;;3.60;1.55;;;13.60;99.90;;;;;;2093369;28;20577;-77
2022/09/16 02:30:01;;;;;;;5.20;1.63;;;13.60;99.90;;;;;;2109733;28;20038;-77
2022/09/16 02:31:04;;;;;;;;;;;13.60;99.90;;;;;;2107235;28;20032;-76
2022/09/16 02:32:07;;;;;;;3.85;1.50;;;13.60;99.90;;;;;;2105110;28;19919;-77
2022/09/16 02:33:09;;;;;;;3.58;1.52;;;13.60;99.90;;;;;;2105801;28;20086;-78
2022/09/16 02:34:17;;;;;;;4.78;1.60;;;13.60;99.90;;;;;;2114474;28;20015;-77
2022/09/16 02:35:20;;;;;;;3.60;1.55;;;13.60;99.90;;;;;;2114384;28;20023;-78
2022/09/16 02:36:23;;;;;;;4.03;1.50;;;13.60;99.90;;;;;;2114286;28;20112;-77
2022/09/16 02:37:25;;;;;;;2.88;1.50;;;13.60;99.90;;;;;;2114136;28;20059;-77
2022/09/16 02:38:32;;;;;;;2.88;1.40;;;13.60;99.90;;;;;;2113538;28;20057;-77
2022/09/16 02:39:38;;;;;;;2.42;1.40;;;13.60;99.90;;;;;;2106574;28;20036;-77
2022/09/16 02:41:13;;;;;;;3.17;1.50;;;13.60;99.90;;;;;;2100823;28;20025;-77
2022/09/16 02:42:15;;;;;;;6.50;1.50;;;13.60;99.90;;;;;;2095875;28;20423;-77
2022/09/16 02:43:16;;;;;;;1.33;1.23;;;13.50;99.90;;;;;;2103134;28;20032;-76
2022/09/16 02:44:16;;;;;;;3.75;1.40;;;13.60;99.90;;;;;;2105960;28;20025;-76
2022/09/16 02:45:17;;;;;;;2.15;1.30;;;13.60;99.90;;;;;;2106214;28;20024;-77
2022/09/16 02:46:39;;;;;;;3.00;1.40;;;13.60;99.90;;;;;;2107022;28;20045;-76
2022/09/16 02:47:59;;;;;;;1.75;1.30;;;13.60;99.90;;;;;;2092886;28;20778;-76
2022/09/16 02:49:26;;;;;;;3.60;1.38;;;13.60;99.90;;;;;;2098709;28;20031;-77
2022/09/16 02:50:42;;;;;;;2.40;1.38;;;13.60;99.90;;;;;;2099147;28;20470;-76
2022/09/16 02:51:58;;;;;;;1.58;1.27;;;13.60;99.90;;;;;;2099010;28;20067;-76
2022/09/16 02:53:03;;;;;;;1.92;1.40;;;13.60;99.90;;;;;;2099106;28;20400;-77
2022/09/16 02:54:15;;;;;;;3.88;1.40;;;13.60;99.90;;;;;;2098948;28;20052;-76
2022/09/16 02:55:41;;;;;;;4.05;1.50;;;13.60;99.90;;;;;;2098817;28;20035;-77
2022/09/16 02:56:41;;;;;;;2.05;1.40;;;13.60;99.90;;;;;;2099119;28;20558;-76
2022/09/16 02:57:42;;;;;;;2.45;1.30;;;13.70;99.90;;;;;;2099008;28;20032;-76
2022/09/16 02:58:43;;;;;;;5.40;1.50;;;13.70;99.90;;;;;;2098605;28;20029;-76
2022/09/16 02:59:44;;;;;;;2.55;1.50;;;13.70;99.90;;;;;;2098433;28;20052;-76
2022/09/16 03:00:48;;;;;;;2.00;1.70;;;13.60;99.90;;;;;;2098631;28;20029;-77
2022/09/16 03:01:49;;;;;;;2.55;1.60;;;13.60;99.90;;;;;;2098618;28;20046;-76
2022/09/16 03:02:52;;;;;;;2.97;1.50;;;13.60;99.90;;;;;;2098431;28;20028;-77
2022/09/16 03:03:55;;;;;;;1.98;1.50;;;13.60;99.90;;;;;;2090226;28;20031;-76
2022/09/16 03:04:56;;;;;;;3.40;1.50;;;13.70;99.90;;;;;;2098243;28;20109;-77
2022/09/16 03:06:05;;;;;;;1.83;1.45;;;13.70;99.90;;;;;;2102830;28;20028;-77
2022/09/16 03:07:09;;;;;;;3.05;1.38;;;13.70;99.90;;;;;;2101039;28;20558;-77
2022/09/16 03:08:10;;;;;;;2.10;1.50;;;13.70;99.90;;;;;;2108412;28;20027;-77
2022/09/16 03:09:13;;;;;;;1.60;1.27;;;13.70;99.90;;;;;;2109667;28;20482;-77
2022/09/16 03:10:14;;;;;;;2.75;1.38;;;13.60;99.90;;;;;;2108791;28;20428;-78
2022/09/16 03:12:01;;;;;;;2.53;1.48;;;13.60;99.90;;;;;;2109748;28;20027;-78
2022/09/16 03:13:11;;;;;;;2.13;1.40;;;13.60;99.90;;;;;;2108657;28;20075;-78
2022/09/16 03:14:36;;;;;;;2.03;1.40;;;13.60;99.90;;;;;;2108537;28;20059;-78
2022/09/16 03:15:59;;;;;;;1.45;1.20;;;13.60;99.90;;;;;;2106987;28;20181;-77
2022/09/16 03:17:21;;;;;;;1.77;1.30;;;13.50;99.90;;;;;;2107219;28;20366;-78
2022/09/16 03:18:22;;;;;;;1.55;1.40;;;13.50;99.90;;;;;;2098883;28;20586;-78
2022/09/16 03:19:29;;;;;;;1.83;1.50;;;13.50;99.90;;;;;;2098822;28;20028;-77
2022/09/16 03:20:50;;;;;;;1.92;1.48;;;13.60;99.90;;;;;;2107800;28;20806;-78
2022/09/16 03:21:56;;;;;;;;;;;13.60;99.90;;;;;;2097793;28;20040;-78
2022/09/16 03:23:18;;;;;;;3.70;1.80;;;13.50;99.90;;;;;;2104282;28;19911;-78
2022/09/16 03:24:48;;;;;;;5.43;2.10;;;13.50;99.90;;;;;;2101134;28;20028;-78
2022/09/16 03:26:03;;;;;;;2.10;1.80;;;13.50;99.90;;;;;;2101738;28;20076;-76
2022/09/16 03:27:20;;;;;;;4.15;2.38;;;13.50;99.90;;;;;;2115129;28;20039;-78
2022/09/16 03:28:42;;;;;;;2.42;1.77;;;13.60;99.90;;;;;;2106489;28;20140;-77
2022/09/16 03:30:00;;;;;;;4.85;1.80;;;13.60;99.90;;;;;;2109522;28;20074;-77
2022/09/16 03:31:19;;;;;;;2.60;1.60;;;13.60;99.90;;;;;;2115379;28;20126;-77
2022/09/16 03:32:24;;;;;;;3.25;1.70;;;13.50;99.90;;;;;;2115050;28;20024;-77
2022/09/16 03:33:55;;;;;;;3.75;1.88;;;13.60;99.90;;;;;;2115484;28;20015;-78
2022/09/16 03:35:11;;;;;;;5.28;2.15;;;13.50;99.90;;;;;;2096983;28;20101;-78
2022/09/16 03:36:19;;;;;;;4.72;1.90;;;13.50;99.90;;;;;;2114295;28;20487;-78
2022/09/16 03:37:22;;;;;;;4.07;2.05;;;13.50;99.90;;;;;;2107633;28;20429;-77
2022/09/16 03:38:23;;;;;;;5.30;1.77;;;13.50;99.90;;;;;;2097598;28;20017;-77
2022/09/16 03:39:24;;;;;;;4.55;1.65;;;13.50;99.90;;;;;;2097387;28;20149;-78
2022/09/16 03:40:28;;;;;;;2.72;1.65;;;13.60;99.90;;;;;;2106281;28;20077;-78
2022/09/16 03:41:31;;;;;;;2.90;1.75;;;13.60;99.90;;;;;;2098558;28;20109;-77
2022/09/16 03:42:32;;;;;;;3.50;1.80;;;13.60;99.90;;;;;;2106986;28;20024;-77
2022/09/16 03:43:33;;;;;;;4.07;2.05;;;13.60;99.90;;;;;;2106153;28;20486;-77
2022/09/16 03:44:39;;;;;;;2.90;2.10;;;13.60;99.90;;;;;;2097855;28;20033;-76
2022/09/16 03:45:41;;;;;;;2.55;1.90;;;13.60;99.90;;;;;;2090442;28;20106;-77
2022/09/16 03:46:42;;;;;;;3.88;2.10;;;13.60;99.90;;;;;;2089567;28;20040;-77
2022/09/16 03:47:45;;;;;;;3.25;1.90;;;13.60;99.90;;;;;;2097750;28;20111;-77
2022/09/16 03:48:46;;;;;;;3.95;2.08;;;13.60;99.90;;;;;;2098405;28;20143;-77
2022/09/16 03:49:46;;;;;;;5.45;2.00;;;13.60;99.90;;;;;;2098130;28;20029;-76
2022/09/16 03:50:47;;;;;;;4.28;1.80;;;13.60;99.90;;;;;;2098520;28;20119;-77
2022/09/16 03:51:47;;;;;;;4.28;1.83;;;13.60;99.90;;;;;;2097770;28;20036;-78
2022/09/16 03:52:48;;;;;;;4.25;1.90;;;13.60;99.90;;;;;;2098921;28;20554;-77
2022/09/16 03:53:50;;;;;;;2.97;1.70;;;13.60;99.90;;;;;;2097636;28;20032;-77
2022/09/16 03:54:51;;;;;;;3.63;1.75;;;13.50;99.90;;;;;;2098106;28;20021;-78
2022/09/16 03:55:51;;;;;;;5.35;2.40;;;13.50;99.90;;;;;;2098624;28;20027;-76
2022/09/16 03:56:52;;;;;;;4.03;2.30;;;13.50;99.90;;;;;;2098221;28;20475;-76
2022/09/16 03:57:53;;;;;;;5.13;2.40;;;13.50;99.90;;;;;;2097641;28;20031;-77
2022/09/16 03:58:54;;;;;;;4.95;2.38;;;13.50;99.90;;;;;;2098192;28;20029;-77
2022/09/16 03:59:54;;;;;;;4.70;2.33;;;13.50;99.90;;;;;;2098046;28;20130;-78
2022/09/16 04:00:55;;;;;;;4.60;2.42;;;13.50;99.90;;;;;;2098171;28;20504;-77
2022/09/16 04:01:56;;;;;;;5.70;2.22;;;13.50;99.90;;;;;;2098499;28;20524;-77
2022/09/16 04:02:58;;;;;;;4.53;1.95;;;13.40;99.90;;;;;;2099178;28;20125;-79
2022/09/16 04:03:59;;;;;;;4.10;2.17;;;13.40;99.90;;;;;;2099159;28;20056;-80
2022/09/16 04:05:00;;;;;;;4.00;2.28;;;13.40;99.90;;;;;;2105669;28;20034;-80
2022/09/16 04:06:01;;;;;;;5.95;2.40;;;13.40;99.90;;;;;;2098931;28;20033;-78
2022/09/16 04:07:01;;;;;;;2.97;2.00;;;13.40;99.90;;;;;;2106536;28;20024;-78
2022/09/16 04:08:02;;;;;;;5.53;2.28;;;13.40;99.90;;;;;;2106730;28;20032;-78
2022/09/16 04:09:05;;;;;;;5.13;2.00;;;13.40;99.90;;;;;;2106588;28;20060;-78
2022/09/16 04:10:07;;;;;;;4.32;2.00;;;13.40;99.90;;;;;;2107792;28;20020;-79
2022/09/16 04:11:07;;;;;;;2.97;1.90;;;13.40;99.90;;;;;;2107532;28;20039;-77
2022/09/16 04:12:08;;;;;;;4.40;1.90;;;13.40;99.90;;;;;;2107459;28;20482;-78
2022/09/16 04:13:09;;;;;;;5.35;2.00;;;13.40;99.90;;;;;;2107029;28;20387;-76
2022/09/16 04:14:10;;;;;;;5.63;2.00;;;13.40;99.90;;;;;;2106232;28;20036;-76
2022/09/16 04:15:11;;;;;;;4.35;2.00;;;13.40;99.90;;;;;;2106620;28;20510;-77
2022/09/16 04:16:20;;;;;;;4.85;1.83;;;13.40;99.90;;;;;;2098150;28;20028;-78
2022/09/16 04:17:23;;;;;;;3.97;2.03;;;13.40;99.90;;;;;;2090957;28;20071;-78
2022/09/16 04:18:24;;;;;;;5.20;1.83;;;13.40;99.90;;;;;;2098791;28;20036;-78
2022/09/16 04:19:25;;;;;;;5.13;2.10;;;13.40;99.90;;;;;;2106878;28;20070;-77
2022/09/16 04:20:26;;;;;;;2.83;1.65;;;13.40;99.90;;;;;;2107849;28;20034;-78
2022/09/16 04:21:28;;;;;;;3.97;1.73;;;13.40;99.90;;;;;;2098904;28;20039;-77
2022/09/16 04:22:30;;;;;;;4.40;1.98;;;13.40;99.90;;;;;;2105899;28;20111;-77
2022/09/16 04:23:30;;;;;;;2.90;1.70;;;13.40;99.90;;;;;;2106676;28;20075;-78
2022/09/16 04:24:31;;;;;;;2.03;1.60;;;13.50;99.90;;;;;;2107320;28;20116;-76
2022/09/16 04:25:32;;;;;;;4.82;1.85;;;13.50;99.90;;;;;;2107679;28;20082;-78
2022/09/16 04:26:33;;;;;;;5.25;2.20;;;13.50;99.90;;;;;;2098847;28;20561;-77
2022/09/16 04:27:34;;;;;;;3.67;2.20;;;13.50;99.90;;;;;;2098602;28;20020;-76
2022/09/16 04:28:34;;;;;;;3.95;2.00;;;13.50;99.90;;;;;;2106900;28;20055;-77
2022/09/16 04:29:35;;;;;;;5.47;1.90;;;13.40;99.90;;;;;;2107289;28;20028;-76
2022/09/16 04:30:37;;;;;;;3.97;2.00;;;13.50;99.90;;;;;;2098972;28;20371;-77
2022/09/16 04:31:37;;;;;;;5.03;2.13;;;13.50;99.90;;;;;;2107247;28;20027;-77
2022/09/16 04:32:38;;;;;;;5.93;1.88;;;13.50;99.90;;;;;;2110945;28;20008;-75
2022/09/16 04:33:40;;;;;;;3.22;1.85;;;13.40;99.90;;;;;;2113969;28;20111;-76
2022/09/16 04:34:42;;;;;;;3.70;1.88;;;13.40;99.90;;;;;;2108008;28;20012;-76
2022/09/16 04:35:42;;;;;;;6.88;2.00;;;13.50;99.90;;;;;;2108022;28;20023;-79
2022/09/16 04:36:43;;;;;;;5.28;2.30;;;13.50;99.90;;;;;;2100761;28;20108;-79
2022/09/16 04:37:44;;;;;;;7.22;2.50;;;13.40;99.90;;;;;;2100977;28;20028;-80
2022/09/16 04:38:46;;;;;;;5.50;2.22;;;13.50;99.90;;;;;;2089817;28;20021;-75
2022/09/16 04:39:46;;;;;;;5.63;2.58;;;13.50;99.90;;;;;;2098417;28;20025;-75
2022/09/16 04:40:47;;;;;;;4.35;2.40;;;13.50;99.90;;;;;;2097794;28;20449;-75
2022/09/16 04:41:48;;;;;;;4.78;2.05;;;13.50;99.90;;;;;;2106109;28;20024;-76
2022/09/16 04:42:49;;;;;;;3.25;2.05;;;13.50;99.90;;;;;;2106061;28;20085;-76
2022/09/16 04:43:53;;;;;;;4.82;2.22;;;13.50;99.90;;;;;;2105883;28;20028;-75
2022/09/16 04:44:53;;;;;;;4.65;2.15;;;13.50;99.90;;;;;;2106766;28;20058;-75
2022/09/16 04:45:55;;;;;;;5.45;2.60;;;13.50;99.90;;;;;;2106283;28;20032;-75
2022/09/16 04:46:56;;;;;;;4.90;2.00;;;13.50;99.90;;;;;;2105203;28;20362;-75
2022/09/16 04:47:57;;;;;;;5.60;2.10;;;13.50;99.90;;;;;;2106168;28;20036;-75
2022/09/16 04:48:59;;;;;;;4.53;2.22;;;13.50;99.90;;;;;;2104896;28;20040;-76
2022/09/16 04:50:00;;;;;;;3.80;2.00;;;13.50;99.90;;;;;;2104574;28;20078;-77
2022/09/16 04:51:07;;;;;;;5.28;2.30;;;13.50;99.90;;;;;;2104733;28;20093;-74
2022/09/16 04:52:08;;;;;;;5.15;2.00;;;13.50;99.90;;;;;;2105286;28;20024;-75
2022/09/16 04:53:08;;;;;;;4.70;2.20;;;13.50;99.90;;;;;;2105519;28;20032;-75
2022/09/16 04:54:11;;;;;;;7.45;2.30;;;13.50;99.90;;;;;;2105147;28;20057;-75
2022/09/16 04:55:11;;;;;;;6.72;2.20;;;13.50;99.90;;;;;;2105252;28;20012;-75
2022/09/16 04:56:14;;;;;;;4.57;2.20;;;13.50;99.90;;;;;;2104468;28;20456;-76
2022/09/16 04:57:15;;;;;;;3.47;2.13;;;13.50;99.90;;;;;;2096505;28;20146;-75
2022/09/16 04:58:16;;;;;;;4.70;2.03;;;13.50;99.90;;;;;;2099638;28;20021;-76
2022/09/16 04:59:16;;;;;;;4.97;2.10;;;13.50;99.90;;;;;;2104485;28;20087;-75
2022/09/16 05:00:17;;;;;;;5.00;2.20;;;13.50;99.90;;;;;;2105364;28;20035;-75
2022/09/16 05:01:22;;;;;;;6.80;2.40;;;13.50;99.90;;;;;;2105959;28;20042;-75
2022/09/16 05:02:22;;;;;;;5.32;2.40;;;13.50;99.90;;;;;;2104634;28;20020;-75
2022/09/16 05:03:23;;;;;;;3.47;1.98;;;13.50;99.90;;;;;;2105671;28;20405;-76
2022/09/16 05:04:24;;;;;;;5.28;2.20;;;13.50;99.90;;;;;;2096184;28;20081;-76
2022/09/16 05:05:24;;;;;;;4.22;1.92;;;13.50;99.90;;;;;;2087846;28;20454;-76
2022/09/16 05:06:27;;;;;;;6.40;2.35;;;13.50;99.90;;;;;;2096342;28;20032;-77
2022/09/16 05:07:28;;;;;;;5.50;2.13;;;13.50;99.90;;;;;;2104713;28;20020;-76
2022/09/16 05:08:29;;;;;;;5.05;2.13;;;13.50;99.90;;;;;;2095662;28;20170;-75
2022/09/16 05:09:29;;;;;;;4.22;2.22;;;13.50;99.90;;;;;;2095548;28;20028;-74
2022/09/16 05:10:30;;;;;;;3.05;2.03;;;13.50;99.90;;;;;;2104780;28;20028;-76
2022/09/16 05:11:36;;;;;;;4.88;2.30;;;13.50;99.90;;;;;;2105658;28;20056;-76
2022/09/16 05:12:44;;;;;;;4.50;2.00;;;13.50;99.90;;;;;;2105220;28;20114;-76
2022/09/16 05:13:45;;;;;;;4.57;2.00;;;13.50;99.90;;;;;;2107443;28;20024;-76
2022/09/16 05:14:46;;;;;;;4.95;2.08;;;13.50;99.90;;;;;;2106306;28;20393;-76
2022/09/16 05:15:46;;;;;;;3.42;2.08;;;13.50;99.90;;;;;;2104627;28;20043;-76
2022/09/16 05:16:47;;;;;;;3.63;2.05;;;13.50;99.90;;;;;;2104197;28;20028;-77
2022/09/16 05:17:49;;;;;;;5.75;2.30;;;13.50;99.90;;;;;;2105050;28;20034;-76
2022/09/16 05:18:52;;;;;;;4.85;2.25;;;13.50;99.90;;;;;;2108945;28;20084;-75
2022/09/16 05:19:53;;;;;;;5.03;2.30;;;13.40;99.90;;;;;;2113408;28;20064;-75
2022/09/16 05:20:59;;;;;;;3.95;2.20;;;13.40;99.90;;;;;;2113524;28;20057;-76
2022/09/16 05:22:01;;;;;;;5.43;2.05;;;13.40;99.90;;;;;;2113716;28;20432;-76
2022/09/16 05:23:02;;;;;;;7.30;2.25;;;13.40;99.90;;;;;;2112912;28;20031;-76
2022/09/16 05:24:07;;;;;;;4.30;2.17;;;13.40;99.90;;;;;;2104513;28;20063;-75
2022/09/16 05:25:08;;;;;;;3.03;2.03;;;13.40;99.90;;;;;;2112949;28;20040;-75
2022/09/16 05:26:11;;;;;;;3.83;2.10;;;13.30;99.90;;;;;;2113482;28;20062;-76
2022/09/16 05:27:12;;;;;;;4.18;2.17;;;13.30;99.90;;;;;;2113479;28;20178;-75
2022/09/16 05:28:12;;;;;;;6.28;2.53;;;13.30;99.90;;;;;;2113722;28;20390;-75
2022/09/16 05:29:15;;;;;;;4.00;2.17;;;13.30;99.90;;;;;;2100765;28;20112;-76
2022/09/16 05:30:19;;;;;;;4.57;2.10;;;13.30;99.90;;;;;;2103436;28;20047;-76
2022/09/16 05:31:25;;;;;;;5.63;2.00;;;13.30;99.90;;;;;;2104945;28;20036;-75
2022/09/16 05:32:26;;;;;;;7.35;2.25;;;13.30;99.90;;;;;;2105733;28;20626;-75
2022/09/16 05:33:27;;;;;;;7.72;2.10;;;13.30;99.90;;;;;;2105496;28;20035;-75
2022/09/16 05:34:27;;;;;;;3.13;1.90;;;13.30;99.90;;;;;;2105494;28;20058;-76
2022/09/16 05:35:28;;;;;;;5.55;1.90;;;13.30;99.90;;;;;;2104975;28;20521;-76
2022/09/16 05:36:31;;;;;;;3.28;2.10;;;13.30;99.90;;;;;;2106241;28;20055;-77
2022/09/16 05:37:32;;;;;;;5.38;2.13;;;13.30;99.90;;;;;;2107473;28;20521;-75
2022/09/16 05:38:33;;;;;;;3.72;2.00;;;13.30;99.90;;;;;;2107874;28;20521;-75
2022/09/16 05:39:34;;;;;;;6.40;2.53;;;13.30;99.90;;;;;;2106561;28;20058;-75
2022/09/16 05:40:34;;;;;;;4.95;2.00;;;13.30;99.90;;;;;;2106447;28;20036;-76
2022/09/16 05:41:35;;;;;;;3.38;1.90;;;13.40;99.90;;;;;;2105201;28;20031;-76
2022/09/16 05:42:36;;;;;;;5.70;2.03;;;13.40;99.90;;;;;;2097041;28;20043;-73
2022/09/16 05:43:37;;;;;;;5.55;2.20;;;13.40;99.90;;;;;;2105072;28;20036;-76